createdAt,value
2018-05-10T00:01:22.300Z,24.40
2018-05-10T00:03:49.774Z,24.40
2018-05-10T00:06:18.146Z,24.30
2018-05-10T00:08:46.386Z,24.30
2018-05-10T00:11:13.906Z,24.30
2018-05-10T00:13:41.452Z,24.30
2018-05-10T00:16:08.956Z,24.30
2018-05-10T00:18:36.456Z,24.10
2018-05-10T00:21:04.698Z,24.00
2018-05-10T00:23:32.186Z,24.00
2018-05-10T00:26:00.418Z,24.10
2018-05-10T00:28:27.934Z,24.10
2018-05-10T00:30:55.416Z,24.20
2018-05-10T00:33:22.946Z,24.20
2018-05-10T00:35:50.438Z,24.20
2018-05-10T00:38:17.894Z,24.30
2018-05-10T00:40:45.382Z,24.30
2018-05-10T00:43:12.907Z,24.30
2018-05-10T00:45:40.403Z,24.30
2018-05-10T00:48:07.925Z,24.30
2018-05-10T00:50:35.389Z,24.40
2018-05-10T00:53:02.929Z,24.30
2018-05-10T00:55:30.423Z,24.40
2018-05-10T00:57:57.922Z,24.30
2018-05-10T01:00:26.145Z,24.30
2018-05-10T01:02:53.668Z,24.30
2018-05-10T01:05:21.142Z,24.30
2018-05-10T01:07:48.625Z,24.20
2018-05-10T01:10:16.250Z,24.20
2018-05-10T01:12:43.753Z,24.20
2018-05-10T01:15:11.375Z,24.20
2018-05-10T01:17:38.884Z,24.20
2018-05-10T01:20:06.347Z,24.20
2018-05-10T01:22:33.862Z,24.20
2018-05-10T01:25:01.387Z,24.20
2018-05-10T01:27:28.903Z,24.20
2018-05-10T01:29:56.407Z,24.20
2018-05-10T01:32:23.907Z,24.20
2018-05-10T01:35:03.200Z,24.20
2018-05-10T01:37:30.750Z,24.20
2018-05-10T01:39:58.990Z,24.20
2018-05-10T01:42:26.562Z,24.20
2018-05-10T01:44:54.129Z,24.20
2018-05-10T01:47:21.642Z,24.20
2018-05-10T01:49:49.169Z,24.20
2018-05-10T01:52:16.672Z,24.20
2018-05-10T01:54:44.153Z,24.20
2018-05-10T01:57:11.666Z,24.20
2018-05-10T01:59:39.131Z,24.10
2018-05-10T02:02:06.633Z,24.20
2018-05-10T02:04:34.137Z,24.20
2018-05-10T02:07:01.671Z,24.20
2018-05-10T02:09:29.905Z,23.90
2018-05-10T02:11:57.393Z,23.90
2018-05-10T02:14:25.647Z,23.90
2018-05-10T02:16:53.117Z,23.90
2018-05-10T02:19:20.681Z,24.00
2018-05-10T02:21:48.934Z,24.00
2018-05-10T02:24:16.453Z,24.00
2018-05-10T02:26:43.957Z,24.00
2018-05-10T02:29:11.469Z,23.90
2018-05-10T02:31:38.940Z,23.90
2018-05-10T02:34:06.434Z,24.00
2018-05-10T02:36:34.030Z,24.00
2018-05-10T02:39:02.295Z,24.00
2018-05-10T02:41:30.559Z,23.90
2018-05-10T02:43:58.820Z,23.90
2018-05-10T02:46:26.310Z,23.90
2018-05-10T02:48:53.809Z,23.90
2018-05-10T02:51:21.339Z,23.90
2018-05-10T02:53:48.826Z,23.90
2018-05-10T02:56:16.338Z,24.00
2018-05-10T02:58:44.608Z,23.90
2018-05-10T03:01:12.850Z,23.90
2018-05-10T03:03:40.346Z,23.90
2018-05-10T03:06:08.614Z,23.80
2018-05-10T03:08:36.902Z,23.80
2018-05-10T03:11:05.137Z,23.80
2018-05-10T03:13:32.609Z,23.80
2018-05-10T03:16:00.122Z,23.80
2018-05-10T03:18:27.630Z,23.70
2018-05-10T03:20:55.176Z,23.60
2018-05-10T03:23:22.682Z,23.60
2018-05-10T03:25:50.167Z,23.70
2018-05-10T03:28:17.677Z,23.70
2018-05-10T03:30:45.934Z,23.70
2018-05-10T03:33:13.522Z,23.70
2018-05-10T03:35:40.936Z,23.80
2018-05-10T03:38:08.450Z,23.80
2018-05-10T03:40:36.089Z,23.80
2018-05-10T03:43:03.538Z,23.80
2018-05-10T03:45:31.802Z,23.70
2018-05-10T03:47:59.300Z,23.70
2018-05-10T03:50:26.778Z,23.70
2018-05-10T03:52:54.265Z,23.70
2018-05-10T03:55:21.768Z,23.80
2018-05-10T03:57:49.254Z,23.70
2018-05-10T04:00:16.760Z,23.70
2018-05-10T04:03:06.934Z,23.70
2018-05-10T04:05:46.191Z,23.70
2018-05-10T04:08:26.339Z,23.60
2018-05-10T04:11:05.754Z,23.70
2018-05-10T04:13:33.225Z,23.70
2018-05-10T04:16:00.703Z,23.70
2018-05-10T04:18:28.959Z,23.70
2018-05-10T04:20:56.563Z,23.70
2018-05-10T04:23:24.082Z,23.80
2018-05-10T04:25:51.657Z,23.70
2018-05-10T04:28:19.966Z,23.80
2018-05-10T04:30:48.449Z,23.80
2018-05-10T04:33:15.937Z,23.80
2018-05-10T04:35:43.520Z,23.80
2018-05-10T04:38:11.709Z,23.70
2018-05-10T04:40:39.959Z,23.70
2018-05-10T04:43:07.533Z,23.70
2018-05-10T04:45:35.024Z,23.70
2018-05-10T04:48:02.505Z,23.70
2018-05-10T04:50:29.989Z,23.70
2018-05-10T04:52:57.455Z,23.80
2018-05-10T04:55:24.943Z,23.80
2018-05-10T04:57:52.495Z,23.90
2018-05-10T05:00:20.767Z,23.90
2018-05-10T05:02:49.003Z,23.90
2018-05-10T05:05:16.576Z,23.80
2018-05-10T05:07:44.201Z,23.90
2018-05-10T05:10:11.737Z,23.90
2018-05-10T05:12:39.219Z,23.90
2018-05-10T05:15:06.789Z,23.90
2018-05-10T05:17:34.328Z,24.00
2018-05-10T05:20:01.807Z,24.00
2018-05-10T05:22:29.317Z,24.00
2018-05-10T05:24:57.625Z,24.10
2018-05-10T05:27:25.154Z,24.10
2018-05-10T05:29:53.417Z,24.10
2018-05-10T05:32:20.929Z,24.10
2018-05-10T05:34:49.342Z,24.20
2018-05-10T05:37:16.889Z,24.30
2018-05-10T05:39:44.390Z,24.30
2018-05-10T05:42:12.645Z,24.30
2018-05-10T05:44:40.229Z,24.30
2018-05-10T05:47:07.772Z,24.40
2018-05-10T05:49:36.025Z,24.30
2018-05-10T05:52:03.541Z,24.30
2018-05-10T05:54:31.047Z,24.20
2018-05-10T05:56:58.647Z,24.20
2018-05-10T05:59:26.161Z,24.20
2018-05-10T06:01:53.629Z,24.30
2018-05-10T06:04:21.208Z,24.40
2018-05-10T06:06:49.447Z,24.30
2018-05-10T06:09:17.045Z,24.30
2018-05-10T06:11:45.301Z,24.20
2018-05-10T06:14:12.811Z,24.20
2018-05-10T06:16:40.325Z,24.20
2018-05-10T06:19:07.825Z,24.20
2018-05-10T06:21:35.308Z,24.10
2018-05-10T06:24:02.885Z,24.10
2018-05-10T06:26:30.370Z,24.20
2018-05-10T06:28:58.628Z,24.20
2018-05-10T06:31:26.889Z,24.30
2018-05-10T06:33:54.421Z,24.30
2018-05-10T06:36:21.931Z,24.30
2018-05-10T06:38:50.217Z,24.40
2018-05-10T06:41:18.486Z,24.40
2018-05-10T06:43:46.727Z,24.40
2018-05-10T06:46:14.255Z,24.40
2018-05-10T06:48:41.774Z,24.50
2018-05-10T06:51:10.062Z,24.30
2018-05-10T06:53:38.299Z,24.40
2018-05-10T06:56:05.806Z,24.40
2018-05-10T06:58:33.299Z,24.40
2018-05-10T07:01:00.804Z,24.40
2018-05-10T07:03:29.040Z,24.50
2018-05-10T07:05:56.546Z,24.50
2018-05-10T07:08:24.034Z,24.50
2018-05-10T07:10:51.569Z,24.30
2018-05-10T07:13:19.061Z,24.40
2018-05-10T07:15:46.564Z,24.40
2018-05-10T07:18:14.812Z,24.20
2018-05-10T07:20:42.318Z,24.20
2018-05-10T07:23:09.814Z,24.30
2018-05-10T07:25:37.298Z,24.00
2018-05-10T07:28:04.798Z,24.00
2018-05-10T07:30:32.279Z,24.10
2018-05-10T07:32:59.851Z,24.10
2018-05-10T07:35:27.313Z,23.90
2018-05-10T07:37:54.919Z,23.90
2018-05-10T07:40:22.436Z,24.00
2018-05-10T07:42:49.938Z,24.10
2018-05-10T07:45:19.076Z,24.10
2018-05-10T07:47:46.579Z,24.00
2018-05-10T07:50:14.809Z,23.90
2018-05-10T07:52:42.302Z,23.80
2018-05-10T07:55:10.577Z,24.10
2018-05-10T07:57:38.831Z,24.10
2018-05-10T08:00:06.351Z,24.20
2018-05-10T08:02:33.842Z,23.90
2018-05-10T08:05:01.420Z,23.80
2018-05-10T08:07:28.895Z,23.70
2018-05-10T08:09:57.176Z,23.80
2018-05-10T08:12:25.411Z,23.90
2018-05-10T08:14:52.913Z,23.90
2018-05-10T08:17:20.410Z,23.80
2018-05-10T08:19:47.950Z,23.90
2018-05-10T08:22:15.450Z,23.70
2018-05-10T08:24:42.907Z,23.70
2018-05-10T08:27:10.505Z,23.70
2018-05-10T08:29:38.094Z,23.90
2018-05-10T08:32:06.515Z,23.90
2018-05-10T08:34:34.024Z,23.90
2018-05-10T08:37:01.505Z,23.80
2018-05-10T08:39:29.013Z,23.80
2018-05-10T08:41:57.291Z,23.80
2018-05-10T08:44:25.595Z,24.00
2018-05-10T08:46:53.126Z,24.00
2018-05-10T08:49:20.614Z,24.10
2018-05-10T08:51:48.224Z,24.10
2018-05-10T08:54:15.652Z,24.10
2018-05-10T08:56:43.298Z,24.30
2018-05-10T08:59:10.897Z,24.40
2018-05-10T09:01:38.396Z,24.50
2018-05-10T09:04:05.909Z,24.60
2018-05-10T09:06:33.414Z,24.70
2018-05-10T09:09:00.896Z,24.70
2018-05-10T09:11:28.496Z,24.70
2018-05-10T09:13:56.758Z,24.80
2018-05-10T09:16:24.342Z,24.80
2018-05-10T09:18:52.610Z,25.00
2018-05-10T09:21:20.852Z,25.00
2018-05-10T09:23:48.400Z,24.90
2018-05-10T09:26:15.870Z,25.00
2018-05-10T09:28:43.456Z,25.00
2018-05-10T09:31:11.705Z,25.10
2018-05-10T09:33:39.322Z,25.10
2018-05-10T09:36:06.805Z,25.30
2018-05-10T09:38:34.326Z,25.30
2018-05-10T09:41:01.798Z,25.40
2018-05-10T09:43:29.309Z,25.40
2018-05-10T09:45:56.820Z,25.40
2018-05-10T09:48:24.310Z,25.30
2018-05-10T09:50:51.832Z,25.20
2018-05-10T09:53:19.340Z,25.30
2018-05-10T09:55:47.609Z,25.40
2018-05-10T09:58:15.109Z,25.40
2018-05-10T10:00:42.647Z,25.70
2018-05-10T10:03:10.922Z,25.80
2018-05-10T10:05:38.513Z,25.80
2018-05-10T10:08:06.047Z,26.50
2018-05-10T10:10:33.531Z,26.50
2018-05-10T10:13:01.047Z,26.20
2018-05-10T10:15:29.313Z,25.90
2018-05-10T10:17:57.597Z,25.70
2018-05-10T10:20:25.857Z,26.00
2018-05-10T10:22:53.419Z,25.90
2018-05-10T10:25:21.688Z,25.80
2018-05-10T10:27:49.959Z,25.70
2018-05-10T10:30:17.548Z,25.70
2018-05-10T10:32:45.102Z,25.70
2018-05-10T10:35:13.343Z,25.60
2018-05-10T10:37:40.834Z,25.50
2018-05-10T10:40:08.366Z,25.50
2018-05-10T10:42:37.300Z,25.40
2018-05-10T10:45:04.820Z,25.40
2018-05-10T10:47:32.313Z,25.30
2018-05-10T10:50:01.110Z,25.20
2018-05-10T10:52:29.456Z,25.20
2018-05-10T10:54:57.015Z,25.20
2018-05-10T10:57:24.516Z,25.20
2018-05-10T10:59:52.016Z,25.10
2018-05-10T11:02:22.691Z,25.10
2018-05-10T11:04:50.270Z,25.00
2018-05-10T11:07:17.794Z,25.00
2018-05-10T11:09:45.270Z,25.00
2018-05-10T11:12:13.624Z,25.00
2018-05-10T11:14:41.155Z,25.00
2018-05-10T11:17:08.751Z,25.00
2018-05-10T11:19:36.302Z,25.00
2018-05-10T11:22:03.819Z,25.00
2018-05-10T11:24:32.081Z,25.10
2018-05-10T11:26:59.655Z,25.00
2018-05-10T11:29:27.957Z,25.10
2018-05-10T11:31:55.507Z,25.10
2018-05-10T11:34:23.767Z,25.10
2018-05-10T11:36:52.030Z,25.10
2018-05-10T11:39:20.866Z,25.00
2018-05-10T11:41:48.429Z,25.00
2018-05-10T11:44:15.914Z,25.10
2018-05-10T11:46:43.539Z,25.30
2018-05-10T11:49:11.065Z,25.20
2018-05-10T11:51:39.443Z,25.10
2018-05-10T11:54:07.849Z,25.10
2018-05-10T11:56:35.398Z,25.10
2018-05-10T11:59:02.951Z,25.00
2018-05-10T12:01:30.427Z,25.20
2018-05-10T12:03:57.965Z,25.30
2018-05-10T12:06:25.473Z,25.40
2018-05-10T12:08:52.950Z,25.30
2018-05-10T12:11:20.455Z,25.30
2018-05-10T12:13:47.938Z,25.30
2018-05-10T12:16:15.427Z,25.30
2018-05-10T12:18:43.714Z,25.40
2018-05-10T12:21:12.017Z,25.40
2018-05-10T12:23:39.513Z,25.50
2018-05-10T12:26:07.032Z,25.50
2018-05-10T12:28:34.524Z,25.60
2018-05-10T12:31:02.156Z,25.70
2018-05-10T12:33:29.671Z,25.70
2018-05-10T12:35:57.953Z,25.70
2018-05-10T12:38:26.242Z,25.90
2018-05-10T12:40:53.759Z,25.80
2018-05-10T12:43:21.272Z,25.90
2018-05-10T12:45:48.752Z,25.90
2018-05-10T12:48:16.269Z,25.90
2018-05-10T12:50:43.810Z,25.90
2018-05-10T12:53:12.065Z,25.80
2018-05-10T12:55:39.583Z,25.80
2018-05-10T12:58:07.057Z,25.70
2018-05-10T13:00:34.599Z,25.80
2018-05-10T13:03:02.106Z,25.80
2018-05-10T13:05:30.350Z,25.80
2018-05-10T13:07:57.862Z,25.80
2018-05-10T13:10:25.363Z,25.90
2018-05-10T13:12:52.887Z,25.90
2018-05-10T13:15:20.410Z,25.90
2018-05-10T13:17:48.667Z,25.90
2018-05-10T13:20:16.912Z,25.90
2018-05-10T13:22:44.410Z,25.90
2018-05-10T13:25:12.676Z,25.90
2018-05-10T13:27:40.186Z,25.90
2018-05-10T13:30:07.716Z,25.90
2018-05-10T13:32:35.277Z,25.90
2018-05-10T13:35:02.777Z,25.90
2018-05-10T13:37:30.300Z,25.90
2018-05-10T13:39:57.809Z,25.80
2018-05-10T13:42:25.296Z,25.80
2018-05-10T13:44:53.700Z,25.70
2018-05-10T13:47:21.253Z,25.70
2018-05-10T13:49:48.673Z,25.60
2018-05-10T13:52:16.958Z,25.50
2018-05-10T13:54:45.206Z,25.50
2018-05-10T13:57:12.692Z,25.50
2018-05-10T13:59:40.940Z,25.60
2018-05-10T14:02:09.230Z,25.50
2018-05-10T14:04:36.757Z,25.50
2018-05-10T14:07:04.230Z,25.50
2018-05-10T14:09:31.715Z,25.40
2018-05-10T14:12:00.001Z,25.40
2018-05-10T14:14:28.263Z,25.40
2018-05-10T14:16:56.516Z,25.40
2018-05-10T14:19:24.033Z,25.40
2018-05-10T14:21:51.543Z,25.50
2018-05-10T14:24:19.068Z,25.50
2018-05-10T14:26:46.583Z,25.50
2018-05-10T14:29:14.979Z,25.40
2018-05-10T14:31:42.486Z,25.40
2018-05-10T14:34:09.982Z,25.50
2018-05-10T14:36:37.468Z,25.50
2018-05-10T14:39:05.700Z,25.40
2018-05-10T14:41:33.946Z,25.50
2018-05-10T14:44:01.483Z,25.50
2018-05-10T14:46:28.968Z,25.40
2018-05-10T14:48:56.451Z,25.40
2018-05-10T14:51:24.736Z,25.40
2018-05-10T14:53:52.272Z,25.40
2018-05-10T14:56:19.760Z,25.40
2018-05-10T14:58:48.016Z,25.40
2018-05-10T15:01:15.536Z,25.50
2018-05-10T15:03:43.047Z,25.50
2018-05-10T15:06:11.308Z,25.50
2018-05-10T15:08:39.566Z,25.50
2018-05-10T15:11:07.101Z,25.50
2018-05-10T15:13:34.589Z,25.50
2018-05-10T15:16:02.107Z,25.60
2018-05-10T15:18:30.298Z,25.60
2018-05-10T15:20:58.070Z,25.60
2018-05-10T15:23:25.539Z,25.60
2018-05-10T15:25:53.147Z,25.60
2018-05-10T15:28:20.643Z,25.70
2018-05-10T15:30:48.181Z,26.10
2018-05-10T15:33:16.551Z,26.50
2018-05-10T15:35:44.042Z,26.40
2018-05-10T15:38:11.547Z,26.50
2018-05-10T15:40:39.057Z,26.20
2018-05-10T15:43:06.573Z,26.10
2018-05-10T15:45:34.077Z,25.90
2018-05-10T15:48:01.559Z,25.90
2018-05-10T15:50:29.064Z,25.80
2018-05-10T15:52:57.320Z,25.60
2018-05-10T15:55:24.825Z,25.60
2018-05-10T15:57:52.323Z,25.30
2018-05-10T16:00:19.842Z,25.00
2018-05-10T16:02:48.099Z,24.80
2018-05-10T16:05:17.129Z,24.70
2018-05-10T16:07:44.675Z,24.70
2018-05-10T16:10:12.925Z,24.50
2018-05-10T16:12:40.445Z,24.50
2018-05-10T16:15:07.952Z,24.40
2018-05-10T16:17:35.469Z,24.40
2018-05-10T16:20:02.985Z,24.30
2018-05-10T16:22:31.277Z,24.10
2018-05-10T16:25:00.277Z,24.10
2018-05-10T16:27:27.749Z,24.00
2018-05-10T16:29:55.372Z,24.10
2018-05-10T16:32:23.659Z,24.00
2018-05-10T16:34:51.161Z,24.00
2018-05-10T16:37:18.693Z,24.00
2018-05-10T16:39:46.213Z,24.00
2018-05-10T16:42:14.454Z,23.90
2018-05-10T16:44:41.969Z,23.90
2018-05-10T16:47:09.470Z,23.90
2018-05-10T16:49:36.991Z,23.90
2018-05-10T16:52:04.509Z,23.80
2018-05-10T16:54:32.021Z,23.80
2018-05-10T16:56:59.585Z,23.80
2018-05-10T16:59:27.110Z,23.90
2018-05-10T17:01:55.509Z,23.90
2018-05-10T17:04:23.001Z,23.90
2018-05-10T17:06:50.511Z,23.90
2018-05-10T17:09:18.077Z,23.90
2018-05-10T17:11:45.493Z,23.80
2018-05-10T17:14:13.821Z,23.60
2018-05-10T17:16:41.329Z,23.60
2018-05-10T17:19:08.823Z,23.70
2018-05-10T17:21:36.329Z,23.70
2018-05-10T17:24:03.803Z,23.90
2018-05-10T17:26:31.361Z,24.00
2018-05-10T17:28:58.861Z,24.20
2018-05-10T17:31:26.405Z,24.30
2018-05-10T17:33:53.897Z,24.30
2018-05-10T17:36:21.357Z,24.40
2018-05-10T17:38:49.005Z,24.50
2018-05-10T17:41:17.325Z,24.50
2018-05-10T17:43:44.861Z,24.50
2018-05-10T17:46:12.369Z,24.50
2018-05-10T17:48:40.639Z,24.60
2018-05-10T17:51:08.971Z,24.60
2018-05-10T17:53:36.471Z,24.60
2018-05-10T17:56:04.773Z,24.60
2018-05-10T17:58:32.262Z,24.60
2018-05-10T18:00:59.734Z,24.60
2018-05-10T18:03:27.305Z,24.70
2018-05-10T18:05:54.794Z,24.70
2018-05-10T18:08:23.082Z,24.70
2018-05-10T18:10:50.632Z,24.70
2018-05-10T18:13:18.165Z,24.80
2018-05-10T18:15:45.689Z,24.80
2018-05-10T18:18:13.176Z,24.90
2018-05-10T18:20:40.695Z,24.90
2018-05-10T18:23:08.160Z,24.90
2018-05-10T18:25:35.701Z,24.90
2018-05-10T18:28:03.205Z,24.90
2018-05-10T18:30:30.808Z,24.90
2018-05-10T18:32:58.315Z,24.90
2018-05-10T18:35:26.632Z,24.90
2018-05-10T18:37:54.164Z,24.90
2018-05-10T18:40:21.640Z,24.90
2018-05-10T18:42:49.914Z,24.90
2018-05-10T18:45:18.197Z,24.90
2018-05-10T18:47:46.488Z,24.90
2018-05-10T18:50:14.011Z,25.00
2018-05-10T18:52:42.305Z,25.00
2018-05-10T18:55:10.591Z,24.90
2018-05-10T18:57:38.083Z,24.90
2018-05-10T19:00:05.644Z,25.00
2018-05-10T19:02:33.151Z,25.00
2018-05-10T19:05:01.425Z,25.00
2018-05-10T19:07:29.809Z,25.00
2018-05-10T19:09:57.225Z,25.00
2018-05-10T19:12:24.710Z,25.00
2018-05-10T19:14:52.229Z,25.00
2018-05-10T19:17:19.748Z,25.10
2018-05-10T19:19:48.010Z,25.40
2018-05-10T19:22:16.337Z,25.60
2018-05-10T19:24:43.868Z,25.60
2018-05-10T19:27:11.392Z,25.60
2018-05-10T19:29:39.645Z,25.60
2018-05-10T19:32:07.162Z,25.60
2018-05-10T19:34:34.661Z,25.60
2018-05-10T19:37:02.168Z,25.60
2018-05-10T19:39:29.673Z,25.60
2018-05-10T19:41:57.160Z,25.50
2018-05-10T19:44:24.673Z,25.40
2018-05-10T19:46:52.162Z,25.40
2018-05-10T19:49:20.297Z,25.40
2018-05-10T19:51:47.800Z,25.30
2018-05-10T19:54:15.302Z,25.30
2018-05-10T19:56:46.118Z,25.20
2018-05-10T19:59:13.546Z,25.20
2018-05-10T20:01:41.166Z,25.10
2018-05-10T20:04:08.687Z,25.10
2018-05-10T20:06:36.937Z,25.00
2018-05-10T20:09:05.192Z,25.00
2018-05-10T20:11:32.674Z,25.00
2018-05-10T20:14:00.951Z,25.00
2018-05-10T20:16:28.434Z,25.00
2018-05-10T20:18:56.759Z,24.90
2018-05-10T20:21:24.259Z,24.90
2018-05-10T20:23:52.520Z,24.90
2018-05-10T20:26:20.100Z,24.90
2018-05-10T20:28:48.346Z,24.80
2018-05-10T20:31:15.837Z,24.80
2018-05-10T20:33:44.131Z,24.80
2018-05-10T20:36:11.697Z,24.70
2018-05-10T20:38:39.250Z,24.70
2018-05-10T20:41:06.736Z,24.70
2018-05-10T20:43:34.257Z,24.70
2018-05-10T20:46:02.529Z,24.70
2018-05-10T20:48:30.796Z,24.70
2018-05-10T20:50:59.130Z,24.70
2018-05-10T20:53:26.655Z,24.70
2018-05-10T20:55:54.247Z,24.70
2018-05-10T20:58:21.772Z,24.70
2018-05-10T21:00:49.269Z,24.70
2018-05-10T21:03:16.769Z,24.70
2018-05-10T21:05:45.023Z,24.70
2018-05-10T21:08:12.625Z,24.70
2018-05-10T21:10:40.133Z,24.70
2018-05-10T21:13:07.679Z,24.70
2018-05-10T21:15:35.169Z,24.70
2018-05-10T21:18:02.649Z,24.70
2018-05-10T21:20:30.207Z,24.60
2018-05-10T21:22:57.765Z,24.60
2018-05-10T21:25:25.304Z,24.60
2018-05-10T21:27:52.792Z,24.60
2018-05-10T21:30:20.287Z,24.60
2018-05-10T21:32:47.800Z,24.60
2018-05-10T21:35:16.073Z,24.60
2018-05-10T21:37:44.364Z,24.60
2018-05-10T21:40:11.841Z,24.60
2018-05-10T21:42:39.318Z,24.60
2018-05-10T21:45:06.819Z,24.60
2018-05-10T21:47:35.096Z,24.50
2018-05-10T21:50:05.927Z,24.50
2018-05-10T21:52:34.183Z,24.50
2018-05-10T21:55:01.747Z,24.50
2018-05-10T21:57:29.199Z,24.50
2018-05-10T21:59:56.712Z,24.50
2018-05-10T22:02:24.276Z,24.50
2018-05-10T22:04:51.791Z,24.50
2018-05-10T22:07:20.082Z,24.50
2018-05-10T22:09:48.365Z,24.50
2018-05-10T22:12:15.905Z,24.50
2018-05-10T22:14:43.386Z,24.50
2018-05-10T22:17:10.918Z,24.50
2018-05-10T22:19:38.446Z,24.50
2018-05-10T22:22:05.939Z,24.50
2018-05-10T22:24:34.256Z,24.50
2018-05-10T22:27:02.527Z,24.50
2018-05-10T22:29:30.015Z,24.50
2018-05-10T22:31:57.508Z,24.40
2018-05-10T22:34:25.781Z,24.40
2018-05-10T22:36:54.082Z,24.40
2018-05-10T22:39:21.575Z,24.40
2018-05-10T22:41:49.074Z,24.40
2018-05-10T22:44:17.378Z,24.40
2018-05-10T22:46:44.829Z,24.40
2018-05-10T22:49:12.347Z,24.40
2018-05-10T22:51:39.811Z,24.40
2018-05-10T22:54:08.069Z,24.40
2018-05-10T22:56:35.558Z,24.40
2018-05-10T22:59:03.831Z,24.40
2018-05-10T23:01:32.113Z,24.40
2018-05-10T23:04:00.390Z,24.40
2018-05-10T23:06:28.621Z,24.40
2018-05-10T23:08:56.197Z,24.40
2018-05-10T23:11:23.722Z,24.40
2018-05-10T23:13:51.224Z,24.40
2018-05-10T23:16:20.229Z,24.40
2018-05-10T23:18:47.709Z,24.40
2018-05-10T23:21:16.045Z,24.40
2018-05-10T23:23:43.527Z,24.40
2018-05-10T23:26:11.823Z,24.40
2018-05-10T23:28:39.337Z,24.40
2018-05-10T23:31:06.799Z,24.40
2018-05-10T23:33:34.415Z,24.40
2018-05-10T23:36:01.903Z,24.40
2018-05-10T23:38:29.509Z,24.40
2018-05-10T23:40:57.809Z,24.40
2018-05-10T23:43:25.307Z,24.40
2018-05-10T23:45:52.825Z,24.40
2018-05-10T23:48:20.313Z,24.40
2018-05-10T23:50:47.841Z,24.40
2018-05-10T23:53:15.329Z,24.40
2018-05-10T23:55:42.839Z,24.40
2018-05-10T23:58:11.097Z,24.40
